Time;durP1;ratioP1;P1;durP2;ratioP2;P2;SDS_P1;SDS_P2;PMS_P1;PMS_P2;Temp;Humidity;BMP_temperature;BMP_pressure;BME280_temperature;BME280_humidity;BME280_pressure;Samples;Min_cycle;Max_cycle;Signal;HPM_P1;HPM_P2
2022/01/19 00:01:12;;;;;;;0.30;0.10;;;-2.00;99.90;;;;;;5092766;28;20274;-84
2022/01/19 00:03:39;;;;;;;0.30;0.10;;;-2.10;99.90;;;;;;5094218;28;20193;-84
2022/01/19 00:06:08;;;;;;;0.30;0.20;;;-2.20;99.90;;;;;;5092704;28;20335;-85
2022/01/19 00:08:35;;;;;;;0.30;0.10;;;-2.20;99.90;;;;;;5090641;28;20194;-85
2022/01/19 00:11:02;;;;;;;0.30;0.10;;;-2.20;99.90;;;;;;5093485;28;20269;-85
2022/01/19 00:13:29;;;;;;;0.30;0.10;;;-2.30;99.90;;;;;;5091998;28;20195;-85
2022/01/19 00:15:56;;;;;;;0.30;0.10;;;-2.30;99.90;;;;;;5093302;28;20203;-86
2022/01/19 00:18:25;;;;;;;0.30;0.10;;;-2.20;99.90;;;;;;5093344;28;20258;-84
2022/01/19 00:20:53;;;;;;;0.40;0.40;;;-2.20;99.90;;;;;;5092788;28;20218;-85
2022/01/19 00:23:23;;;;;;;0.73;0.32;;;-2.20;99.90;;;;;;5093301;28;20278;-85
2022/01/19 00:25:52;;;;;;;0.30;0.10;;;-2.10;99.90;;;;;;5098227;28;20194;-85
2022/01/19 00:28:19;;;;;;;0.40;0.30;;;-2.20;99.90;;;;;;5118312;28;20215;-86
2022/01/19 00:30:46;;;;;;;0.30;0.20;;;-2.20;99.90;;;;;;5111310;28;20258;-86
2022/01/19 00:33:14;;;;;;;0.30;0.10;;;-2.20;99.90;;;;;;5111290;28;20195;-85
2022/01/19 00:35:41;;;;;;;0.40;0.35;;;-2.20;99.90;;;;;;5108524;28;20686;-85
2022/01/19 00:38:09;;;;;;;0.30;0.10;;;-2.20;99.90;;;;;;5094897;28;20664;-85
2022/01/19 00:40:39;;;;;;;0.73;0.68;;;-2.10;99.90;;;;;;5088066;28;20686;-86
2022/01/19 00:43:06;;;;;;;0.30;0.20;;;-2.00;99.90;;;;;;5091783;28;20197;-85
2022/01/19 00:45:34;;;;;;;0.30;0.20;;;-2.10;99.90;;;;;;5090020;28;20196;-85
2022/01/19 00:48:01;;;;;;;0.30;0.10;;;-2.10;99.90;;;;;;5087705;28;20199;-86
2022/01/19 00:50:30;;;;;;;0.30;0.10;;;-2.20;99.90;;;;;;5091844;28;20214;-85
2022/01/19 00:52:58;;;;;;;0.30;0.10;;;-2.20;99.90;;;;;;5092381;28;20190;-85
2022/01/19 00:55:26;;;;;;;0.40;0.40;;;-2.40;99.90;;;;;;5091996;28;20536;-85
2022/01/19 00:57:56;;;;;;;0.30;0.10;;;-2.50;99.90;;;;;;5089263;28;20241;-85
2022/01/19 01:00:25;;;;;;;0.35;0.22;;;-2.50;99.90;;;;;;5091884;28;20295;-85
2022/01/19 01:02:52;;;;;;;0.30;0.20;;;-2.50;99.90;;;;;;5092122;28;20239;-85
2022/01/19 01:05:21;;;;;;;0.30;0.10;;;-2.50;99.90;;;;;;5089018;28;20229;-86
2022/01/19 01:07:48;;;;;;;0.30;0.10;;;-2.50;99.90;;;;;;5091969;28;20218;-85
2022/01/19 01:10:17;;;;;;;0.30;0.10;;;-2.50;99.90;;;;;;5090794;28;20243;-86
2022/01/19 01:12:47;;;;;;;0.30;0.10;;;-2.60;99.90;;;;;;5089040;28;20953;-85
2022/01/19 01:15:37;;;;;;;0.30;0.10;;;-2.60;99.90;;;;;;5088831;28;20705;-85
2022/01/19 01:18:20;;;;;;;0.30;0.10;;;-2.60;99.90;;;;;;5089980;28;20207;-85
2022/01/19 01:20:49;;;;;;;0.30;0.20;;;-2.70;99.90;;;;;;5090220;28;20701;-84
2022/01/19 01:23:17;;;;;;;0.30;0.10;;;-2.80;99.90;;;;;;5084930;28;20189;-84
2022/01/19 01:25:44;;;;;;;0.30;0.10;;;-2.90;99.90;;;;;;5091400;28;20693;-85
2022/01/19 01:28:11;;;;;;;0.30;0.10;;;-2.90;99.90;;;;;;5091150;28;20763;-85
2022/01/19 01:30:40;;;;;;;2.17;0.90;;;-3.00;99.90;;;;;;5090100;28;20334;-85
2022/01/19 01:33:07;;;;;;;0.30;0.10;;;-2.90;99.90;;;;;;5091163;28;20202;-85
2022/01/19 01:35:35;;;;;;;0.30;0.10;;;-2.90;99.90;;;;;;5088499;28;20697;-85
2022/01/19 01:38:02;;;;;;;0.30;0.10;;;-3.00;99.90;;;;;;5091599;28;20194;-85
2022/01/19 01:40:32;;;;;;;0.30;0.10;;;-3.00;99.90;;;;;;5088216;28;20217;-85
2022/01/19 01:43:00;;;;;;;0.30;0.10;;;-3.10;99.90;;;;;;5091568;28;20491;-84
2022/01/19 01:45:30;;;;;;;0.30;0.10;;;-3.10;99.90;;;;;;5090444;28;20254;-84
2022/01/19 01:48:06;;;;;;;0.30;0.10;;;-3.10;99.90;;;;;;5089253;28;20697;-84
2022/01/19 01:53:29;;;;;;;0.30;0.20;;;-3.00;99.90;;;;;;5089090;28;20201;-84
2022/01/19 01:55:59;;;;;;;0.30;0.10;;;-2.90;99.90;;;;;;5090643;28;20239;-83
2022/01/19 01:58:27;;;;;;;0.30;0.10;;;-2.80;99.90;;;;;;5090256;28;20713;-84
2022/01/19 02:00:54;;;;;;;0.30;0.10;;;-2.70;99.90;;;;;;5092761;28;20278;-84
2022/01/19 02:03:23;;;;;;;0.30;0.10;;;-2.60;99.90;;;;;;5115749;28;20262;-86
2022/01/19 02:06:09;;;;;;;0.30;0.10;;;-2.50;99.90;;;;;;5110659;28;20218;-83
2022/01/19 02:08:41;;;;;;;0.30;0.20;;;-2.60;99.90;;;;;;5102193;28;20201;-86
2022/01/19 02:11:33;;;;;;;0.30;0.10;;;-2.70;99.90;;;;;;5086614;28;20740;-84
2022/01/19 02:22:34;;;;;;;0.40;0.22;;;-2.70;99.90;;;;;;5091207;28;20196;-83
2022/01/19 02:25:03;;;;;;;0.30;0.10;;;-2.50;99.90;;;;;;5087856;28;20192;-85
2022/01/19 02:31:19;;;;;;;0.30;0.10;;;-2.50;99.90;;;;;;5052463;28;20197;-84
2022/01/19 02:41:38;;;;;;;0.30;0.20;;;-2.50;99.90;;;;;;5087618;28;20231;-85
2022/01/19 02:44:05;;;;;;;0.30;0.10;;;-2.40;99.90;;;;;;5089500;28;20223;-85
2022/01/19 02:46:41;;;;;;;0.30;0.20;;;-2.50;99.90;;;;;;5090456;28;20193;-85
2022/01/19 02:49:15;;;;;;;0.30;0.10;;;-2.40;99.90;;;;;;5089630;28;20204;-86
2022/01/19 02:51:44;;;;;;;0.30;0.10;;;-2.50;99.90;;;;;;5089583;28;20204;-85
2022/01/19 02:54:12;;;;;;;0.30;0.10;;;-2.50;99.90;;;;;;5091093;28;20558;-85
2022/01/19 02:56:42;;;;;;;0.30;0.10;;;-2.60;99.90;;;;;;5089079;28;20715;-87
2022/01/19 02:59:16;;;;;;;0.30;0.10;;;-2.60;99.90;;;;;;5090023;28;20578;-85
2022/01/19 03:09:58;;;;;;;0.30;0.10;;;-2.70;99.90;;;;;;5086810;28;20674;-85
2022/01/19 03:12:25;;;;;;;0.30;0.10;;;-2.70;99.90;;;;;;5089587;28;20265;-84
2022/01/19 03:14:52;;;;;;;0.30;0.10;;;-2.70;99.90;;;;;;5086767;28;20193;-86
2022/01/19 03:17:19;;;;;;;0.30;0.10;;;-2.70;99.90;;;;;;5089675;28;20201;-84
2022/01/19 03:19:46;;;;;;;0.30;0.10;;;-2.80;99.90;;;;;;5089390;28;20647;-86
2022/01/19 03:22:16;;;;;;;0.30;0.10;;;-2.70;99.90;;;;;;5088999;28;20213;-85
2022/01/19 03:24:49;;;;;;;0.30;0.10;;;-2.80;99.90;;;;;;5089409;28;20258;-86
2022/01/19 03:27:17;;;;;;;0.30;0.10;;;-2.80;99.90;;;;;;5083643;28;20293;-84
2022/01/19 03:29:44;;;;;;;0.30;0.10;;;-2.80;99.90;;;;;;5090025;28;20246;-85
2022/01/19 03:32:11;;;;;;;0.30;0.10;;;-2.80;99.90;;;;;;5087641;28;20205;-85
2022/01/19 03:34:39;;;;;;;0.30;0.10;;;-2.80;99.90;;;;;;5086701;28;20255;-85
2022/01/19 03:37:07;;;;;;;0.30;0.10;;;-2.80;99.90;;;;;;5100788;28;20197;-85
2022/01/19 03:39:36;;;;;;;0.30;0.10;;;-2.80;99.90;;;;;;5110878;28;20229;-86
2022/01/19 03:42:03;;;;;;;0.30;0.20;;;-2.80;99.90;;;;;;5102090;28;20267;-84
2022/01/19 03:44:31;;;;;;;0.30;0.10;;;-2.80;99.90;;;;;;5102129;28;20242;-86
2022/01/19 03:47:00;;;;;;;0.93;0.77;;;-2.90;99.90;;;;;;5089867;28;20200;-85
2022/01/19 03:49:29;;;;;;;0.30;0.10;;;-2.90;99.90;;;;;;5088612;28;20270;-85
2022/01/19 03:51:59;;;;;;;0.30;0.10;;;-3.00;99.90;;;;;;5086630;28;20280;-85
2022/01/19 03:54:26;;;;;;;0.30;0.10;;;-3.00;99.90;;;;;;5087646;28;20193;-87
2022/01/19 03:56:55;;;;;;;0.30;0.10;;;-3.00;99.90;;;;;;5088212;28;20197;-87
2022/01/19 03:59:25;;;;;;;0.30;0.20;;;-3.00;99.90;;;;;;5087110;28;20204;-85
2022/01/19 04:01:53;;;;;;;0.60;0.60;;;-3.00;99.90;;;;;;5088535;28;20303;-87
2022/01/19 04:04:37;;;;;;;0.30;0.10;;;-2.90;99.90;;;;;;5087702;28;20207;-84
2022/01/19 04:07:09;;;;;;;0.30;0.10;;;-3.00;99.90;;;;;;5088533;28;20197;-85
2022/01/19 04:09:38;;;;;;;0.30;0.20;;;-2.90;99.90;;;;;;5086736;28;20247;-87
2022/01/19 04:12:09;;;;;;;0.30;0.10;;;-2.80;99.90;;;;;;5088115;28;20285;-85
2022/01/19 04:14:36;;;;;;;0.30;0.10;;;-2.90;99.90;;;;;;5086057;28;20262;-85
2022/01/19 04:17:06;;;;;;;0.30;0.20;;;-2.90;99.90;;;;;;5088546;28;20193;-85
2022/01/19 04:19:41;;;;;;;0.30;0.10;;;-2.90;99.90;;;;;;5088378;28;20701;-86
2022/01/19 04:22:10;;;;;;;0.30;0.10;;;-2.80;99.90;;;;;;5091814;28;20228;-85
2022/01/19 04:24:38;;;;;;;0.30;0.10;;;-2.70;99.90;;;;;;5090228;28;20590;-85
2022/01/19 04:29:59;;;;;;;0.30;0.10;;;-2.70;99.90;;;;;;5092093;28;20285;-86
2022/01/19 04:32:33;;;;;;;0.30;0.10;;;-2.70;99.90;;;;;;5090718;28;20318;-85
2022/01/19 04:35:04;;;;;;;0.30;0.10;;;-2.70;99.90;;;;;;5093586;28;20224;-85
2022/01/19 04:37:44;;;;;;;0.30;0.20;;;-2.70;99.90;;;;;;5092668;28;20189;-85
2022/01/19 04:48:48;;;;;;;0.30;0.17;;;-2.80;99.90;;;;;;5085192;28;20261;-85
2022/01/19 05:02:54;;;;;;;0.30;0.10;;;-2.80;99.90;;;;;;5092718;28;20779;-86
2022/01/19 05:05:27;;;;;;;0.30;0.10;;;-2.90;99.90;;;;;;5093019;28;20200;-85
2022/01/19 05:07:59;;;;;;;0.30;0.10;;;-2.90;99.90;;;;;;5094437;28;20282;-84
2022/01/19 05:13:32;;;;;;;0.30;0.10;;;-3.00;99.90;;;;;;5064817;28;20195;-85
2022/01/19 05:16:00;;;;;;;0.30;0.17;;;-3.00;99.90;;;;;;5109874;28;20197;-85
2022/01/19 05:18:27;;;;;;;3.45;3.25;;;-3.00;99.90;;;;;;5115180;28;20197;-84
2022/01/19 05:20:55;;;;;;;2.30;2.17;;;-3.00;99.90;;;;;;5111488;28;20181;-84
2022/01/19 05:23:22;;;;;;;1.17;1.17;;;-3.00;99.90;;;;;;5107758;28;20284;-83
2022/01/19 05:25:49;;;;;;;0.30;0.10;;;-3.10;99.90;;;;;;5111737;28;20198;-84
2022/01/19 05:28:16;;;;;;;0.30;0.10;;;-3.10;99.90;;;;;;5107272;28;20196;-84
2022/01/19 05:30:43;;;;;;;0.40;0.40;;;-3.20;99.90;;;;;;5103953;28;20261;-84
2022/01/19 05:33:11;;;;;;;0.30;0.20;;;-3.20;99.90;;;;;;5093528;28;20209;-84
2022/01/19 05:35:38;;;;;;;0.30;0.10;;;-3.30;99.90;;;;;;5094008;28;20207;-84
2022/01/19 05:38:05;;;;;;;0.30;0.15;;;-3.30;99.90;;;;;;5093586;28;20201;-85
2022/01/19 05:40:32;;;;;;;0.30;0.10;;;-3.20;99.90;;;;;;5091135;28;20250;-86
2022/01/19 05:42:59;;;;;;;0.30;0.10;;;-3.20;99.90;;;;;;5091481;28;20220;-85
2022/01/19 05:45:27;;;;;;;0.30;0.10;;;-3.20;99.90;;;;;;5093259;28;20193;-86
2022/01/19 05:47:54;;;;;;;1.40;1.30;;;-3.20;99.90;;;;;;5091640;28;20197;-84
2022/01/19 05:50:30;;;;;;;0.30;0.10;;;-3.20;99.90;;;;;;5090286;28;20286;-82
2022/01/19 05:52:57;;;;;;;1.20;0.38;;;-3.10;99.90;;;;;;5096051;28;20636;-85
2022/01/19 05:55:28;;;;;;;0.30;0.10;;;-3.10;99.90;;;;;;5094917;28;20219;-84
2022/01/19 05:57:56;;;;;;;0.30;0.10;;;-3.00;99.90;;;;;;5093757;28;20281;-87
2022/01/19 06:00:23;;;;;;;0.30;0.10;;;-3.10;99.90;;;;;;5099721;28;20605;-84
2022/01/19 06:02:50;;;;;;;0.30;0.10;;;-3.10;99.90;;;;;;5096997;28;20228;-84
2022/01/19 06:05:17;;;;;;;0.30;0.10;;;-3.20;99.90;;;;;;5091743;28;20197;-85
2022/01/19 06:07:48;;;;;;;0.30;0.10;;;-3.20;99.90;;;;;;5091435;28;20725;-86
2022/01/19 06:12:56;;;;;;;0.30;0.10;;;-3.10;99.90;;;;;;5087023;28;20261;-86
2022/01/19 06:15:23;;;;;;;0.30;0.10;;;-3.00;99.90;;;;;;5087562;28;20201;-86
2022/01/19 06:17:51;;;;;;;0.30;0.10;;;-2.90;99.90;;;;;;5090795;28;20258;-85
2022/01/19 06:20:18;;;;;;;0.30;0.10;;;-3.00;99.90;;;;;;5089329;28;20640;-86
2022/01/19 06:22:46;;;;;;;1.30;1.25;;;-3.00;99.90;;;;;;5088629;28;20263;-89
2022/01/19 06:25:13;;;;;;;0.30;0.10;;;-3.00;99.90;;;;;;5090029;28;20200;-87
2022/01/19 06:27:40;;;;;;;0.55;0.55;;;-3.00;99.90;;;;;;5091124;28;20212;-86
2022/01/19 06:30:08;;;;;;;0.30;0.10;;;-3.00;99.90;;;;;;5083274;28;20198;-88
2022/01/19 06:32:35;;;;;;;0.30;0.10;;;-3.00;99.90;;;;;;5070663;28;20657;-86
2022/01/19 06:35:03;;;;;;;0.30;0.10;;;-3.10;99.90;;;;;;5088066;28;20246;-86
2022/01/19 06:37:30;;;;;;;0.30;0.10;;;-3.20;99.90;;;;;;5080242;28;20197;-86
2022/01/19 06:39:58;;;;;;;0.30;0.20;;;-3.20;99.90;;;;;;5090373;28;20201;-87
2022/01/19 06:42:25;;;;;;;1.38;1.05;;;-3.20;99.90;;;;;;5091807;28;20683;-86
2022/01/19 06:44:52;;;;;;;0.30;0.10;;;-3.20;99.90;;;;;;5093885;28;20200;-87
2022/01/19 06:47:19;;;;;;;0.30;0.20;;;-3.20;99.90;;;;;;5098091;28;20268;-87
2022/01/19 06:49:46;;;;;;;0.30;0.10;;;-3.10;99.90;;;;;;5096022;28;20223;-87
2022/01/19 06:52:13;;;;;;;0.30;0.10;;;-3.10;99.90;;;;;;5082732;28;20205;-86
2022/01/19 06:54:40;;;;;;;0.30;0.10;;;-3.10;99.90;;;;;;5078733;28;20204;-86
2022/01/19 06:57:08;;;;;;;0.30;0.10;;;-3.20;99.90;;;;;;5092384;28;20225;-90
2022/01/19 06:59:35;;;;;;;0.30;0.17;;;-3.10;99.90;;;;;;5091708;28;20710;-87
2022/01/19 07:02:03;;;;;;;0.30;0.10;;;-3.10;99.90;;;;;;5090486;28;20220;-87
2022/01/19 07:04:30;;;;;;;0.30;0.10;;;-3.10;99.90;;;;;;5091095;28;20357;-87
2022/01/19 07:06:57;;;;;;;0.30;0.10;;;-3.00;99.90;;;;;;5090938;28;20253;-87
2022/01/19 07:09:24;;;;;;;0.30;0.10;;;-2.90;99.90;;;;;;5090424;28;20223;-88
2022/01/19 07:11:51;;;;;;;0.30;0.17;;;-2.90;99.90;;;;;;5074818;28;20206;-88
2022/01/19 07:14:20;;;;;;;0.30;0.15;;;-2.90;99.90;;;;;;5078704;28;20254;-88
2022/01/19 07:16:47;;;;;;;0.30;0.10;;;-2.90;99.90;;;;;;5089402;28;20201;-87
2022/01/19 07:19:14;;;;;;;0.30;0.10;;;-2.80;99.90;;;;;;5090497;28;20228;-88
2022/01/19 07:21:41;;;;;;;0.30;0.10;;;-2.80;99.90;;;;;;5090217;28;20660;-87
2022/01/19 07:24:08;;;;;;;0.30;0.10;;;-2.80;99.90;;;;;;5074953;28;20197;-87
2022/01/19 07:26:35;;;;;;;0.30;0.10;;;-2.70;99.90;;;;;;5070043;28;20197;-88
2022/01/19 07:29:02;;;;;;;0.30;0.20;;;-2.60;99.90;;;;;;5069725;28;20247;-89
2022/01/19 07:31:30;;;;;;;0.30;0.10;;;-2.60;99.90;;;;;;5084549;28;20199;-87
2022/01/19 07:33:57;;;;;;;0.30;0.10;;;-2.50;99.90;;;;;;5090058;28;20809;-87
2022/01/19 07:36:24;;;;;;;0.30;0.10;;;-2.50;99.90;;;;;;5089493;28;20228;-88
2022/01/19 07:38:51;;;;;;;0.30;0.10;;;-2.40;99.90;;;;;;5089305;28;20254;-87
2022/01/19 07:41:18;;;;;;;0.30;0.10;;;-2.50;99.90;;;;;;5090025;28;20246;-88
2022/01/19 07:43:45;;;;;;;0.30;0.10;;;-2.50;99.90;;;;;;5089952;28;20840;-85
2022/01/19 07:46:12;;;;;;;0.30;0.10;;;-2.50;99.90;;;;;;5070638;28;20201;-87
2022/01/19 07:48:40;;;;;;;0.30;0.10;;;-2.60;99.90;;;;;;5089511;28;20750;-86
2022/01/19 07:51:07;;;;;;;0.30;0.10;;;-2.60;99.90;;;;;;5085039;28;20313;-86
2022/01/19 07:53:34;;;;;;;0.30;0.10;;;-2.50;99.90;;;;;;5068889;28;20201;-87
2022/01/19 07:56:03;;;;;;;0.75;0.75;;;-2.40;99.90;;;;;;5088893;28;20258;-87
2022/01/19 07:58:30;;;;;;;0.30;0.10;;;-2.30;99.90;;;;;;5092272;28;20224;-91
2022/01/19 08:00:57;;;;;;;0.30;0.10;;;-2.30;99.90;;;;;;5094841;28;20795;-86
2022/01/19 08:03:24;;;;;;;0.30;0.10;;;-2.10;99.90;;;;;;5092794;28;20278;-87
2022/01/19 08:05:53;;;;;;;0.30;0.10;;;-1.90;99.90;;;;;;5092503;28;20206;-86
2022/01/19 08:08:20;;;;;;;0.30;0.10;;;-1.80;99.90;;;;;;5090618;28;20197;-88
2022/01/19 08:10:48;;;;;;;0.30;0.10;;;-1.80;99.90;;;;;;5093488;28;20288;-86
2022/01/19 08:13:15;;;;;;;0.30;0.10;;;-1.80;99.90;;;;;;5092860;28;20200;-87
2022/01/19 08:15:42;;;;;;;0.30;0.10;;;-1.80;99.90;;;;;;5089962;28;20651;-87
2022/01/19 08:18:15;;;;;;;0.30;0.10;;;-1.70;99.90;;;;;;5087722;28;20738;-86
2022/01/19 08:20:43;;;;;;;0.30;0.10;;;-1.80;99.90;;;;;;5088281;28;20226;-85
2022/01/19 08:23:11;;;;;;;0.30;0.10;;;-1.90;99.90;;;;;;5082877;28;20218;-85
2022/01/19 08:25:38;;;;;;;0.30;0.10;;;-1.80;99.90;;;;;;5100545;28;20183;-86
2022/01/19 08:28:06;;;;;;;0.30;0.10;;;-1.80;99.90;;;;;;5114449;28;20249;-85
2022/01/19 08:30:33;;;;;;;0.30;0.10;;;-1.60;99.90;;;;;;5110970;28;20200;-85
2022/01/19 08:33:00;;;;;;;0.30;0.10;;;-1.60;99.90;;;;;;5101524;28;20297;-87
2022/01/19 08:35:27;;;;;;;0.30;0.10;;;-1.40;99.90;;;;;;5091137;28;20214;-88
2022/01/19 08:37:54;;;;;;;0.30;0.28;;;-1.40;99.90;;;;;;5072761;28;20206;-87
2022/01/19 08:40:26;;;;;;;0.30;0.10;;;-1.30;99.90;;;;;;5073264;28;20213;-87
2022/01/19 08:42:54;;;;;;;0.30;0.20;;;-1.20;99.90;;;;;;5072923;28;20217;-86
2022/01/19 08:45:22;;;;;;;0.30;0.10;;;-1.10;99.90;;;;;;5079445;28;20242;-86
2022/01/19 08:47:50;;;;;;;0.30;0.10;;;-1.10;99.90;;;;;;5093322;28;20340;-86
2022/01/19 08:50:18;;;;;;;0.30;0.10;;;-1.10;99.90;;;;;;5092421;28;20286;-85
2022/01/19 08:52:45;;;;;;;0.30;0.10;;;-1.00;99.90;;;;;;5091705;28;20798;-86
2022/01/19 08:55:14;;;;;;;0.30;0.10;;;-1.00;99.90;;;;;;5084785;28;20202;-85
2022/01/19 08:57:42;;;;;;;0.30;0.10;;;-0.90;99.90;;;;;;5072210;28;21071;-87
2022/01/19 09:00:12;;;;;;;0.30;0.10;;;-0.90;99.90;;;;;;5072360;28;20198;-87
2022/01/19 09:02:39;;;;;;;0.30;0.20;;;-0.60;99.90;;;;;;5072540;28;20681;-87
2022/01/19 09:05:07;;;;;;;1.52;1.42;;;-0.60;99.90;;;;;;5072112;28;20299;-87
2022/01/19 09:07:34;;;;;;;0.30;0.10;;;-0.50;99.90;;;;;;5071289;28;20202;-87
2022/01/19 09:10:01;;;;;;;0.47;0.47;;;-0.50;99.90;;;;;;5072906;28;20218;-87
2022/01/19 09:12:28;;;;;;;0.30;0.20;;;-0.60;99.90;;;;;;5071382;28;20653;-89
2022/01/19 09:14:57;;;;;;;0.35;0.20;;;-0.70;99.90;;;;;;5072164;28;20642;-87
2022/01/19 09:17:24;;;;;;;0.30;0.10;;;-0.80;99.90;;;;;;5079802;28;20226;-87
2022/01/19 09:19:51;;;;;;;1.63;1.52;;;-0.50;99.90;;;;;;5093773;28;20202;-87
2022/01/19 09:22:18;;;;;;;0.30;0.10;;;-0.50;99.90;;;;;;5080751;28;20226;-89
2022/01/19 09:24:45;;;;;;;0.30;0.10;;;-0.50;99.90;;;;;;5090101;28;20202;-85
2022/01/19 09:27:14;;;;;;;0.30;0.10;;;-0.40;99.90;;;;;;5083071;28;20207;-86
2022/01/19 09:29:45;;;;;;;0.30;0.10;;;-0.40;99.90;;;;;;5082563;28;20201;-86
2022/01/19 09:32:14;;;;;;;0.30;0.10;;;-0.50;99.90;;;;;;5092205;28;20205;-88
2022/01/19 09:34:43;;;;;;;0.30;0.10;;;-0.50;99.90;;;;;;5092439;28;20211;-86
2022/01/19 09:37:11;;;;;;;0.30;0.10;;;-0.50;99.90;;;;;;5087725;28;20668;-91
2022/01/19 09:39:38;;;;;;;0.30;0.10;;;-0.40;99.90;;;;;;5074924;28;20198;-86
2022/01/19 09:42:05;;;;;;;0.30;0.10;;;-0.70;99.90;;;;;;5072313;28;20725;-85
2022/01/19 09:44:32;;;;;;;0.30;0.20;;;-0.80;99.90;;;;;;5078176;28;20203;-87
2022/01/19 09:47:00;;;;;;;0.30;0.20;;;-0.90;99.90;;;;;;5093941;28;20206;-85
2022/01/19 09:49:28;;;;;;;0.40;0.20;;;-0.80;99.90;;;;;;5093366;28;20657;-85
2022/01/19 09:51:55;;;;;;;0.30;0.10;;;-0.80;99.90;;;;;;5107739;28;20227;-84
2022/01/19 09:54:24;;;;;;;0.30;0.10;;;-0.90;99.90;;;;;;5095267;28;20197;-84
2022/01/19 09:56:52;;;;;;;0.30;0.20;;;-0.90;99.90;;;;;;5090055;28;20198;-85
2022/01/19 09:59:19;;;;;;;0.30;0.10;;;-0.90;99.90;;;;;;5102377;28;20186;-87
2022/01/19 10:01:52;;;;;;;0.30;0.10;;;-1.00;99.90;;;;;;5116035;28;20238;-86
2022/01/19 10:04:20;;;;;;;0.40;0.30;;;-0.90;99.90;;;;;;5113265;28;20250;-87
2022/01/19 10:06:48;;;;;;;0.30;0.10;;;-0.80;99.90;;;;;;5107519;28;20193;-88
2022/01/19 10:09:25;;;;;;;0.30;0.10;;;-0.70;99.90;;;;;;5093657;28;20254;-88
2022/01/19 10:17:29;;;;;;;0.30;0.10;;;-0.70;99.90;;;;;;5071490;28;20216;-89
2022/01/19 10:19:56;;;;;;;0.30;0.10;;;-0.70;99.90;;;;;;5083561;28;20194;-89
2022/01/19 10:22:26;;;;;;;0.30;0.10;;;-0.80;99.90;;;;;;5091429;28;20739;-89
2022/01/19 10:24:55;;;;;;;0.30;0.20;;;-0.90;99.90;;;;;;5091261;28;20243;-90
2022/01/19 10:27:28;;;;;;;0.95;0.95;;;-0.90;99.90;;;;;;5083656;28;20289;-90
2022/01/19 10:30:11;;;;;;;0.30;0.20;;;-0.80;99.90;;;;;;5071312;28;20199;-89
2022/01/19 10:32:41;;;;;;;0.30;0.10;;;-0.80;99.90;;;;;;5070564;28;20208;-88
2022/01/19 10:35:17;;;;;;;0.30;0.10;;;-0.60;99.90;;;;;;5071733;28;20569;-88
2022/01/19 10:37:47;;;;;;;0.30;0.20;;;-0.70;99.90;;;;;;5070677;28;20264;-88
2022/01/19 10:40:17;;;;;;;0.30;0.10;;;-0.60;99.90;;;;;;5071242;28;20204;-91
2022/01/19 10:42:44;;;;;;;0.30;0.10;;;-0.50;99.90;;;;;;5088355;28;20217;-89
2022/01/19 10:45:12;;;;;;;0.30;0.10;;;-0.40;99.90;;;;;;5090745;28;20580;-88
2022/01/19 10:47:43;;;;;;;0.30;0.10;;;-0.30;99.90;;;;;;5080600;28;20256;-88
2022/01/19 10:50:11;;;;;;;0.30;0.20;;;-0.10;99.90;;;;;;5070468;28;20603;-88
2022/01/19 10:52:40;;;;;;;0.30;0.10;;;-0.20;99.90;;;;;;5090210;28;20211;-89
2022/01/19 10:55:11;;;;;;;0.77;0.30;;;-0.40;99.90;;;;;;5090909;28;20231;-88
2022/01/19 10:57:40;;;;;;;0.30;0.10;;;-0.40;99.90;;;;;;5080670;28;20236;-88
2022/01/19 11:00:19;;;;;;;0.30;0.10;;;-0.10;99.90;;;;;;5070690;28;20227;-89
2022/01/19 11:02:48;;;;;;;0.30;0.10;;;0.00;99.90;;;;;;5070732;28;20254;-89
2022/01/19 11:05:17;;;;;;;0.30;0.10;;;0.00;99.90;;;;;;5077812;28;20210;-88
2022/01/19 11:07:44;;;;;;;0.30;0.20;;;0.00;99.90;;;;;;5090725;28;20643;-88
2022/01/19 11:10:17;;;;;;;0.30;0.10;;;0.10;99.90;;;;;;5090813;28;20199;-89
2022/01/19 11:12:49;;;;;;;0.30;0.20;;;0.20;99.90;;;;;;5090217;28;20205;-90
2022/01/19 11:15:19;;;;;;;0.40;0.30;;;0.20;99.90;;;;;;5070269;28;20208;-89
2022/01/19 11:17:47;;;;;;;0.30;0.20;;;0.10;99.90;;;;;;5071023;28;20210;-89
2022/01/19 11:20:16;;;;;;;0.40;0.22;;;0.20;99.90;;;;;;5081648;28;20199;-90
2022/01/19 11:23:10;;;;;;;0.30;0.10;;;0.50;99.90;;;;;;5089960;28;20198;-91
2022/01/19 11:25:50;;;;;;;0.30;0.10;;;0.30;99.90;;;;;;5090252;28;20297;-89
2022/01/19 11:28:28;;;;;;;0.30;0.20;;;0.10;99.90;;;;;;5098514;28;20267;-91
2022/01/19 11:30:56;;;;;;;0.30;0.20;;;0.40;99.90;;;;;;5110756;28;20193;-90
2022/01/19 11:33:25;;;;;;;0.30;0.10;;;0.30;99.90;;;;;;5112881;28;20275;-90
2022/01/19 11:35:55;;;;;;;0.30;0.10;;;0.30;99.90;;;;;;5114088;28;20203;-91
2022/01/19 11:38:34;;;;;;;0.30;0.10;;;0.20;99.90;;;;;;5114782;28;20204;-92
2022/01/19 11:41:05;;;;;;;0.30;0.10;;;0.20;99.90;;;;;;5093944;28;20184;-90
2022/01/19 11:43:33;;;;;;;0.30;0.10;;;0.20;99.90;;;;;;5073710;28;20297;-89
2022/01/19 11:46:03;;;;;;;0.57;0.30;;;0.20;99.90;;;;;;5071202;28;20203;-89
2022/01/19 11:48:33;;;;;;;0.30;0.10;;;0.30;99.90;;;;;;5088518;28;20198;-90
2022/01/19 11:51:27;;;;;;;0.30;0.10;;;0.00;99.90;;;;;;5090638;28;20219;-91
2022/01/19 11:54:00;;;;;;;0.30;0.10;;;-0.10;99.90;;;;;;5091364;28;20208;-90
2022/01/19 11:56:29;;;;;;;0.85;0.80;;;-0.20;99.90;;;;;;5081909;28;20768;-90
2022/01/19 11:59:07;;;;;;;0.30;0.20;;;-0.10;99.90;;;;;;5070078;28;20231;-89
2022/01/19 12:01:34;;;;;;;0.30;0.10;;;0.10;99.90;;;;;;5078455;28;20206;-88
2022/01/19 12:04:15;;;;;;;0.30;0.20;;;0.20;99.90;;;;;;5099142;28;20219;-89
2022/01/19 12:06:43;;;;;;;0.30;0.10;;;0.40;99.90;;;;;;5101061;28;20203;-88
2022/01/19 12:09:12;;;;;;;0.30;0.10;;;0.50;99.90;;;;;;5099856;28;20216;-88
2022/01/19 12:11:48;;;;;;;0.30;0.10;;;0.50;99.90;;;;;;5089367;28;20210;-89
2022/01/19 12:14:18;;;;;;;0.30;0.10;;;0.50;99.90;;;;;;5090107;28;20624;-90
2022/01/19 12:17:00;;;;;;;0.45;0.40;;;0.50;99.90;;;;;;5085612;28;20292;-90
2022/01/19 12:19:30;;;;;;;0.30;0.15;;;0.60;99.90;;;;;;5086551;28;20294;-90
2022/01/19 12:22:11;;;;;;;0.30;0.10;;;0.60;99.90;;;;;;5069266;28;20584;-89
2022/01/19 12:24:44;;;;;;;0.30;0.10;;;0.40;99.90;;;;;;5069739;28;20247;-90
2022/01/19 12:27:29;;;;;;;0.35;0.17;;;0.20;99.90;;;;;;5078114;28;20210;-89
2022/01/19 12:30:06;;;;;;;0.35;0.25;;;0.20;99.90;;;;;;5067335;28;20199;-91
2022/01/19 12:32:37;;;;;;;0.30;0.10;;;0.20;99.90;;;;;;5069405;28;20197;-89
2022/01/19 12:35:15;;;;;;;0.30;0.10;;;0.20;99.90;;;;;;5069002;28;20208;-90
2022/01/19 12:37:45;;;;;;;0.30;0.10;;;0.10;99.90;;;;;;5069639;28;20238;-90
2022/01/19 12:40:35;;;;;;;0.30;0.10;;;0.10;99.90;;;;;;5069145;28;20647;-89
2022/01/19 12:43:07;;;;;;;0.40;0.20;;;0.20;99.90;;;;;;5071570;28;20201;-89
2022/01/19 12:45:36;;;;;;;0.30;0.10;;;0.20;99.90;;;;;;5073378;28;20823;-90
2022/01/19 12:48:05;;;;;;;0.30;0.10;;;0.10;99.90;;;;;;5087990;28;20199;-89
2022/01/19 12:50:44;;;;;;;0.30;0.10;;;0.20;99.90;;;;;;5072737;28;20652;-90
2022/01/19 12:53:25;;;;;;;0.30;0.10;;;0.20;99.90;;;;;;5072953;28;20199;-90
2022/01/19 12:55:56;;;;;;;0.43;0.43;;;0.00;99.90;;;;;;5073875;28;20298;-90
2022/01/19 12:58:31;;;;;;;0.30;0.20;;;-0.10;99.90;;;;;;5072695;28;20236;-90
2022/01/19 13:01:02;;;;;;;0.40;0.38;;;0.10;99.90;;;;;;5072409;28;20206;-90
2022/01/19 13:03:33;;;;;;;0.30;0.10;;;0.00;99.90;;;;;;5072465;28;20223;-89
2022/01/19 13:06:03;;;;;;;0.40;0.30;;;-0.10;99.90;;;;;;5078776;28;20467;-90
2022/01/19 13:08:37;;;;;;;0.30;0.20;;;-0.30;99.90;;;;;;5099418;28;20206;-90
2022/01/19 13:11:21;;;;;;;0.30;0.10;;;-0.20;99.90;;;;;;5117443;28;20238;-90
2022/01/19 13:13:54;;;;;;;0.40;0.30;;;-0.20;99.90;;;;;;5116924;28;20196;-89
2022/01/19 13:16:30;;;;;;;0.30;0.20;;;-0.10;99.90;;;;;;5105369;28;20216;-90
2022/01/19 13:19:02;;;;;;;0.30;0.10;;;-0.20;99.90;;;;;;5089059;28;20208;-90
2022/01/19 13:21:29;;;;;;;0.30;0.20;;;-0.30;99.90;;;;;;5072924;28;20728;-91
2022/01/19 13:23:59;;;;;;;0.30;0.10;;;-0.40;99.90;;;;;;5072474;28;20934;-90
2022/01/19 13:26:36;;;;;;;0.30;0.10;;;-0.40;99.90;;;;;;5082237;28;20742;-89
2022/01/19 13:29:19;;;;;;;0.30;0.10;;;-0.20;99.90;;;;;;5073907;28;20213;-90
2022/01/19 13:32:07;;;;;;;0.68;0.30;;;-0.30;99.90;;;;;;5071577;28;20210;-90
2022/01/19 13:34:49;;;;;;;0.30;0.10;;;-0.40;99.90;;;;;;5074951;28;20235;-89
2022/01/19 13:37:16;;;;;;;0.30;0.10;;;-0.30;99.90;;;;;;5092334;28;20215;-88
2022/01/19 13:39:43;;;;;;;0.30;0.10;;;-0.30;99.90;;;;;;5091775;28;20270;-90
2022/01/19 13:42:11;;;;;;;0.40;0.20;;;-0.20;99.90;;;;;;5092043;28;20262;-91
2022/01/19 13:44:48;;;;;;;0.30;0.10;;;-0.40;99.90;;;;;;5090509;28;20907;-91
2022/01/19 13:47:26;;;;;;;0.30;0.10;;;-0.40;99.90;;;;;;5072015;28;20232;-90
2022/01/19 13:49:54;;;;;;;0.30;0.10;;;-0.40;99.90;;;;;;5071502;28;20599;-91
2022/01/19 13:52:25;;;;;;;0.30;0.10;;;-0.30;99.90;;;;;;5080708;28;20209;-89
2022/01/19 13:54:53;;;;;;;0.30;0.10;;;-0.20;99.90;;;;;;5093653;28;20198;-90
2022/01/19 13:57:28;;;;;;;0.30;0.20;;;-0.20;99.90;;;;;;5092904;28;20225;-89
2022/01/19 14:00:09;;;;;;;0.30;0.10;;;-0.30;99.90;;;;;;5094803;28;20216;-90
2022/01/19 14:02:36;;;;;;;0.65;0.65;;;-0.50;99.90;;;;;;5114255;28;20202;-90
2022/01/19 14:05:04;;;;;;;0.30;0.10;;;-0.50;99.90;;;;;;5115769;28;20220;-90
2022/01/19 14:07:31;;;;;;;0.30;0.10;;;-0.50;99.90;;;;;;5115043;28;20201;-91